Time;durP1;ratioP1;P1;durP2;ratioP2;P2;SDS_P1;SDS_P2;PMS_P1;PMS_P2;Temp;Humidity;BMP_temperature;BMP_pressure;BME280_temperature;BME280_humidity;BME280_pressure;Samples;Min_cycle;Max_cycle;Signal;HPM_P1;HPM_P2
2021/05/19 00:01:42;;;;;;;17.30;9.95;;;9.70;99.90;;;;;;5050002;28;20254;-65
2021/05/19 00:04:10;;;;;;;13.07;10.18;;;9.70;99.90;;;;;;5052134;28;20204;-65
2021/05/19 00:06:38;;;;;;;12.75;11.40;;;9.60;99.90;;;;;;5054721;28;20208;-65
2021/05/19 00:09:07;;;;;;;17.15;11.10;;;9.50;99.90;;;;;;5055123;28;20208;-65
2021/05/19 00:11:36;;;;;;;13.13;11.65;;;9.60;99.90;;;;;;5055511;28;20534;-65
2021/05/19 00:14:09;;;;;;;16.52;10.98;;;9.80;99.90;;;;;;5056102;28;20459;-65
2021/05/19 00:16:36;;;;;;;14.02;11.80;;;9.70;99.90;;;;;;5054965;28;20207;-65
2021/05/19 00:19:04;;;;;;;12.68;9.77;;;9.60;99.90;;;;;;5053374;28;20230;-65
2021/05/19 00:21:31;;;;;;;8.77;7.80;;;9.50;99.90;;;;;;5055704;28;20209;-65
2021/05/19 00:23:58;;;;;;;9.82;8.40;;;9.50;99.90;;;;;;5055140;28;20220;-66
2021/05/19 00:26:26;;;;;;;12.15;10.13;;;9.60;99.90;;;;;;5054983;28;20638;-65
2021/05/19 00:28:55;;;;;;;16.88;9.13;;;9.50;99.90;;;;;;5054096;28;20228;-65
2021/05/19 00:31:24;;;;;;;9.90;8.63;;;9.50;99.90;;;;;;5052757;28;20235;-65
2021/05/19 00:33:51;;;;;;;10.60;7.90;;;9.50;99.90;;;;;;5053220;28;20266;-65
2021/05/19 00:36:19;;;;;;;11.85;9.02;;;9.30;99.90;;;;;;5054506;28;20217;-65
2021/05/19 00:38:46;;;;;;;12.70;8.32;;;9.30;99.90;;;;;;5053244;28;20199;-65
2021/05/19 00:41:13;;;;;;;9.82;8.00;;;9.40;99.90;;;;;;5054497;28;20251;-65
2021/05/19 00:43:41;;;;;;;9.65;8.10;;;9.30;99.90;;;;;;5055398;28;20212;-66
2021/05/19 00:46:09;;;;;;;10.52;7.38;;;9.30;99.90;;;;;;5054487;28;20237;-65
2021/05/19 00:48:36;;;;;;;11.77;8.82;;;9.30;99.90;;;;;;5054510;28;20274;-65
2021/05/19 00:51:04;;;;;;;10.85;7.28;;;9.40;99.90;;;;;;5051034;28;20223;-65
2021/05/19 00:53:32;;;;;;;11.48;9.43;;;9.30;99.90;;;;;;5055532;28;20249;-65
2021/05/19 00:56:00;;;;;;;11.02;8.80;;;9.30;99.90;;;;;;5053971;28;20209;-65
2021/05/19 00:58:28;;;;;;;11.23;8.80;;;9.20;99.90;;;;;;5055308;28;20216;-64
2021/05/19 01:00:55;;;;;;;14.48;9.15;;;9.30;99.90;;;;;;5052366;28;20563;-64
2021/05/19 01:03:22;;;;;;;10.20;8.10;;;9.20;99.90;;;;;;5055055;28;20371;-66
2021/05/19 01:05:57;;;;;;;9.23;8.00;;;9.20;99.90;;;;;;5052554;28;20238;-65
2021/05/19 01:11:13;;;;;;;11.18;8.13;;;9.20;99.90;;;;;;5052669;28;20199;-66
2021/05/19 01:13:43;;;;;;;11.85;9.15;;;9.20;99.90;;;;;;5055218;28;20209;-64
2021/05/19 01:16:10;;;;;;;10.27;8.63;;;9.10;99.90;;;;;;5051950;28;20545;-64
2021/05/19 01:18:42;;;;;;;13.35;8.75;;;9.30;99.90;;;;;;5054921;28;20225;-68
2021/05/19 01:21:11;;;;;;;11.07;8.50;;;9.40;99.90;;;;;;5055061;28;20281;-66
2021/05/19 01:23:40;;;;;;;10.02;7.85;;;9.50;99.90;;;;;;5053334;28;20283;-65
2021/05/19 01:26:09;;;;;;;12.27;9.93;;;9.60;99.90;;;;;;5054605;28;20492;-65
2021/05/19 01:28:38;;;;;;;19.35;9.93;;;9.50;99.90;;;;;;5053853;28;20212;-65
2021/05/19 01:31:08;;;;;;;12.88;8.77;;;9.50;99.90;;;;;;5053767;28;20240;-65
2021/05/19 01:33:35;;;;;;;8.82;7.88;;;9.60;99.90;;;;;;5053677;28;20203;-64
2021/05/19 01:36:03;;;;;;;10.98;9.55;;;9.50;99.90;;;;;;5053523;28;20209;-65
2021/05/19 01:38:32;;;;;;;12.15;9.43;;;9.50;99.90;;;;;;5052693;28;20200;-65
2021/05/19 01:40:59;;;;;;;14.23;10.80;;;9.50;99.90;;;;;;5055273;28;20247;-65
2021/05/19 01:43:33;;;;;;;12.05;9.75;;;9.40;99.90;;;;;;5053316;28;20434;-66
2021/05/19 01:46:01;;;;;;;13.85;9.00;;;9.40;99.90;;;;;;5055323;28;20250;-65
2021/05/19 01:48:32;;;;;;;13.30;11.73;;;9.30;99.90;;;;;;5054208;28;20228;-65
2021/05/19 01:51:00;;;;;;;12.95;11.32;;;9.30;99.90;;;;;;5053758;28;20219;-64
2021/05/19 01:53:28;;;;;;;13.13;10.60;;;9.30;99.90;;;;;;5054040;28;20234;-64
2021/05/19 01:55:56;;;;;;;12.52;11.18;;;9.10;99.90;;;;;;5053404;28;20303;-66
2021/05/19 01:58:23;;;;;;;15.48;11.52;;;8.90;99.90;;;;;;5054521;28;20212;-65
2021/05/19 02:00:50;;;;;;;18.35;13.23;;;8.90;99.90;;;;;;5054321;28;20423;-65
2021/05/19 02:03:19;;;;;;;17.60;13.38;;;8.90;99.90;;;;;;5054839;28;20213;-64
2021/05/19 02:05:46;;;;;;;17.05;13.52;;;9.00;99.90;;;;;;5052218;28;20241;-65
2021/05/19 02:08:14;;;;;;;16.30;13.07;;;9.00;99.90;;;;;;5054860;28;20207;-65
2021/05/19 02:10:44;;;;;;;16.35;14.57;;;8.90;99.90;;;;;;5053730;28;20223;-65
2021/05/19 02:13:12;;;;;;;20.35;16.30;;;9.00;99.90;;;;;;5053742;28;20204;-65
2021/05/19 02:15:39;;;;;;;19.92;15.23;;;9.00;99.90;;;;;;5053875;28;20259;-65
2021/05/19 02:18:06;;;;;;;20.42;14.15;;;9.00;99.90;;;;;;5054262;28;20203;-65
2021/05/19 02:20:34;;;;;;;19.85;14.77;;;9.00;99.90;;;;;;5052178;28;20398;-64
2021/05/19 02:23:01;;;;;;;24.27;16.67;;;9.00;99.90;;;;;;5053758;28;20204;-64
2021/05/19 02:25:28;;;;;;;23.25;16.92;;;9.00;99.90;;;;;;5054233;28;20569;-65
2021/05/19 02:27:55;;;;;;;26.40;19.75;;;9.10;99.90;;;;;;5051636;28;20242;-66
2021/05/19 02:30:25;;;;;;;23.88;18.15;;;9.20;99.90;;;;;;5054549;28;20335;-65
2021/05/19 02:32:52;;;;;;;28.38;20.48;;;9.00;99.90;;;;;;5051636;28;20542;-64
2021/05/19 02:35:19;;;;;;;25.35;19.45;;;9.20;99.90;;;;;;5052426;28;20216;-65
2021/05/19 02:37:46;;;;;;;21.73;17.23;;;9.30;99.90;;;;;;5052398;28;20212;-66
2021/05/19 02:40:16;;;;;;;24.10;17.38;;;9.30;99.90;;;;;;5049910;28;20243;-64
2021/05/19 02:42:44;;;;;;;23.52;17.00;;;9.40;99.90;;;;;;5055225;28;20508;-64
2021/05/19 02:45:12;;;;;;;22.80;15.93;;;9.30;99.90;;;;;;5054488;28;20255;-63
2021/05/19 02:47:39;;;;;;;21.08;15.70;;;9.30;99.90;;;;;;5057223;28;20258;-65
2021/05/19 02:50:06;;;;;;;21.33;15.88;;;9.30;99.90;;;;;;5054020;28;20433;-64
2021/05/19 02:52:33;;;;;;;20.23;14.60;;;9.30;99.90;;;;;;5056526;28;20223;-65
2021/05/19 02:55:03;;;;;;;25.27;15.73;;;9.40;99.90;;;;;;5057326;28;20246;-64
2021/05/19 02:57:30;;;;;;;19.98;15.68;;;9.40;99.90;;;;;;5055992;28;20498;-64
2021/05/19 02:59:57;;;;;;;20.75;16.10;;;9.30;99.90;;;;;;5056184;28;20206;-64
2021/05/19 03:02:24;;;;;;;21.15;16.52;;;9.20;99.90;;;;;;5056669;28;20483;-64
2021/05/19 03:04:51;;;;;;;22.15;16.25;;;9.40;99.90;;;;;;5055997;28;20244;-65
2021/05/19 03:07:18;;;;;;;27.90;18.83;;;9.40;99.90;;;;;;5055241;28;20219;-64
2021/05/19 03:09:45;;;;;;;25.13;19.50;;;9.50;99.90;;;;;;5056764;28;20269;-64
2021/05/19 03:12:12;;;;;;;26.33;18.98;;;9.50;99.90;;;;;;5056756;28;20502;-64
2021/05/19 03:14:39;;;;;;;26.17;20.50;;;9.60;99.90;;;;;;5056532;28;20227;-64
2021/05/19 03:17:06;;;;;;;39.42;21.45;;;9.60;99.90;;;;;;5056357;28;20510;-64
2021/05/19 03:19:33;;;;;;;27.77;21.85;;;9.60;99.90;;;;;;5055690;28;20220;-64
2021/05/19 03:22:00;;;;;;;30.88;24.15;;;9.70;99.90;;;;;;5053654;28;20226;-64
2021/05/19 03:24:28;;;;;;;24.83;20.38;;;9.80;99.90;;;;;;5053329;28;20501;-64
2021/05/19 03:26:55;;;;;;;27.38;20.75;;;9.80;99.90;;;;;;5056215;28;20485;-64
2021/05/19 03:29:22;;;;;;;22.77;17.15;;;10.10;99.90;;;;;;5054400;28;20204;-64
2021/05/19 03:31:49;;;;;;;24.40;15.80;;;10.50;99.90;;;;;;5056843;28;20231;-65
2021/05/19 03:34:16;;;;;;;21.10;14.23;;;10.60;99.90;;;;;;5055327;28;20237;-65
2021/05/19 03:36:43;;;;;;;21.30;15.55;;;10.80;99.90;;;;;;5055043;28;20221;-64
2021/05/19 03:39:12;;;;;;;19.17;15.13;;;10.90;99.90;;;;;;5056954;28;20232;-64
2021/05/19 03:41:40;;;;;;;18.33;15.40;;;11.00;99.90;;;;;;5055405;28;20245;-64
2021/05/19 03:44:08;;;;;;;20.75;15.10;;;11.30;99.90;;;;;;5055668;28;20210;-64
2021/05/19 03:46:35;;;;;;;20.08;15.70;;;11.50;99.90;;;;;;5056431;28;20244;-65
2021/05/19 03:49:03;;;;;;;17.60;15.13;;;11.60;99.90;;;;;;5055752;28;20537;-64
2021/05/19 03:51:32;;;;;;;19.23;15.43;;;11.80;99.90;;;;;;5053883;28;20257;-65
2021/05/19 03:53:59;;;;;;;17.95;14.27;;;11.90;99.90;;;;;;5054717;28;20224;-64
2021/05/19 03:56:28;;;;;;;23.98;16.45;;;11.70;99.90;;;;;;5053482;28;20253;-65
2021/05/19 03:58:55;;;;;;;25.05;14.75;;;11.70;99.90;;;;;;5056228;28;20570;-65
2021/05/19 04:01:23;;;;;;;16.40;13.25;;;11.70;99.90;;;;;;5052675;28;20207;-64
2021/05/19 04:03:51;;;;;;;15.07;13.55;;;11.80;99.90;;;;;;5055928;28;20232;-64
2021/05/19 04:06:24;;;;;;;18.40;14.75;;;11.80;99.90;;;;;;5054892;28;20242;-65
2021/05/19 04:08:52;;;;;;;18.00;13.13;;;11.80;99.90;;;;;;5057082;28;20207;-64
2021/05/19 04:11:20;;;;;;;12.95;11.55;;;11.80;99.90;;;;;;5054285;28;20544;-64
2021/05/19 04:13:47;;;;;;;19.13;14.75;;;11.90;99.90;;;;;;5055795;28;20214;-65
2021/05/19 04:16:14;;;;;;;13.63;12.20;;;12.10;99.90;;;;;;5055342;28;20532;-65
2021/05/19 04:18:41;;;;;;;20.42;11.43;;;12.20;99.90;;;;;;5055605;28;20217;-65
2021/05/19 04:21:11;;;;;;;12.98;11.63;;;12.50;99.90;;;;;;5054972;28;20556;-64
2021/05/19 04:23:38;;;;;;;12.07;10.85;;;12.70;99.90;;;;;;5055322;28;20222;-65
2021/05/19 04:26:07;;;;;;;12.43;10.40;;;12.80;99.90;;;;;;5053374;28;20230;-64
2021/05/19 04:28:35;;;;;;;18.13;11.85;;;12.90;99.90;;;;;;5055030;28;20211;-65
2021/05/19 04:31:02;;;;;;;11.95;9.35;;;13.10;99.90;;;;;;5053612;28;20299;-66
2021/05/19 04:33:29;;;;;;;15.82;10.88;;;13.20;99.90;;;;;;5054261;28;20512;-65
2021/05/19 04:35:56;;;;;;;10.43;9.43;;;13.10;99.90;;;;;;5055373;28;20215;-65
2021/05/19 04:38:24;;;;;;;13.13;9.40;;;13.40;99.90;;;;;;5053516;28;20211;-66
2021/05/19 04:40:51;;;;;;;14.65;8.90;;;13.30;99.90;;;;;;5054905;28;20243;-66
2021/05/19 04:43:18;;;;;;;9.05;8.07;;;13.20;99.90;;;;;;5054909;28;20211;-65
2021/05/19 04:45:46;;;;;;;16.73;9.98;;;13.20;99.90;;;;;;5054277;28;20336;-65
2021/05/19 04:48:13;;;;;;;12.68;10.07;;;13.20;99.90;;;;;;5055258;28;20215;-65
2021/05/19 04:50:41;;;;;;;10.02;8.45;;;13.20;99.90;;;;;;5054534;28;20271;-66
2021/05/19 04:53:10;;;;;;;9.23;8.23;;;13.30;99.90;;;;;;5054359;28;20263;-65
2021/05/19 04:55:38;;;;;;;8.60;7.70;;;13.50;99.90;;;;;;5054245;28;20222;-67
2021/05/19 04:58:06;;;;;;;8.32;7.55;;;13.50;99.90;;;;;;5054378;28;20375;-65
2021/05/19 05:00:36;;;;;;;8.48;7.57;;;13.60;99.90;;;;;;5055263;28;20207;-66
2021/05/19 05:03:04;;;;;;;9.70;8.20;;;13.60;99.90;;;;;;5054880;28;20203;-65
2021/05/19 05:05:31;;;;;;;8.60;7.57;;;13.70;99.90;;;;;;5052532;28;20207;-64
2021/05/19 05:07:58;;;;;;;9.77;8.30;;;14.00;99.90;;;;;;5053544;28;20257;-66
2021/05/19 05:10:25;;;;;;;8.60;7.70;;;14.40;99.90;;;;;;5054986;28;20211;-65
2021/05/19 05:12:52;;;;;;;9.18;7.95;;;14.90;99.90;;;;;;5052199;28;20563;-65
2021/05/19 05:15:21;;;;;;;8.93;8.13;;;15.40;99.90;;;;;;5055819;28;20516;-66
2021/05/19 05:17:48;;;;;;;8.02;6.78;;;15.70;99.90;;;;;;5053014;28;20203;-66
2021/05/19 05:20:16;;;;;;;8.52;7.43;;;15.80;99.90;;;;;;5051769;28;20249;-65
2021/05/19 05:22:43;;;;;;;14.60;7.40;;;15.80;99.90;;;;;;5051954;28;20511;-65
2021/05/19 05:25:12;;;;;;;9.35;7.50;;;15.70;99.90;;;;;;5055147;28;20220;-66
2021/05/19 05:27:40;;;;;;;8.70;7.30;;;15.40;99.90;;;;;;5050995;28;20591;-65
2021/05/19 05:30:07;;;;;;;7.78;6.20;;;15.00;99.90;;;;;;5053482;28;20541;-66
2021/05/19 05:32:35;;;;;;;9.88;7.43;;;14.70;99.90;;;;;;5053333;28;20211;-65
2021/05/19 05:35:02;;;;;;;9.13;6.50;;;14.30;99.90;;;;;;5053313;28;20387;-66
2021/05/19 05:37:29;;;;;;;6.78;6.03;;;14.20;99.90;;;;;;5053757;28;20490;-65
2021/05/19 05:39:56;;;;;;;6.78;6.18;;;14.20;99.90;;;;;;5052008;28;20242;-66
2021/05/19 05:42:25;;;;;;;7.65;6.95;;;14.40;99.90;;;;;;5049173;28;20242;-66
2021/05/19 05:44:53;;;;;;;6.50;5.50;;;14.70;99.90;;;;;;5054282;28;20267;-67
2021/05/19 05:47:20;;;;;;;9.43;6.53;;;15.20;99.90;;;;;;5052488;28;20240;-65
2021/05/19 05:49:50;;;;;;;11.75;7.53;;;15.40;99.90;;;;;;5052886;28;20387;-66
2021/05/19 05:52:18;;;;;;;7.60;6.90;;;15.50;99.90;;;;;;5053063;28;20274;-67
2021/05/19 05:54:45;;;;;;;8.93;6.80;;;15.40;99.90;;;;;;5052481;28;20204;-68
2021/05/19 05:57:12;;;;;;;7.97;7.22;;;15.10;99.90;;;;;;5052123;28;20469;-67
2021/05/19 05:59:39;;;;;;;12.40;7.55;;;15.10;99.90;;;;;;5050187;28;20245;-66
2021/05/19 06:02:07;;;;;;;7.13;6.43;;;15.20;99.90;;;;;;5048288;28;20575;-66
2021/05/19 06:04:41;;;;;;;8.65;6.43;;;15.20;99.90;;;;;;5056351;28;20275;-67
2021/05/19 06:07:09;;;;;;;7.63;6.38;;;15.50;99.90;;;;;;5056869;28;20315;-68
2021/05/19 06:09:36;;;;;;;7.60;6.80;;;16.10;99.90;;;;;;5055772;28;20215;-67
2021/05/19 06:12:03;;;;;;;7.03;6.33;;;16.70;99.90;;;;;;5050212;28;20229;-66
2021/05/19 06:14:31;;;;;;;7.20;6.50;;;17.40;98.80;;;;;;5052754;28;20647;-67
2021/05/19 06:17:02;;;;;;;7.03;6.33;;;17.50;98.30;;;;;;5054813;28;20440;-66
2021/05/19 06:19:29;;;;;;;18.40;7.50;;;17.40;98.30;;;;;;5050570;28;20447;-67
2021/05/19 06:22:01;;;;;;;9.20;6.37;;;16.90;99.20;;;;;;5050159;28;20443;-67
2021/05/19 06:24:29;;;;;;;7.63;6.80;;;16.40;99.80;;;;;;5051621;28;20457;-66
2021/05/19 06:26:58;;;;;;;11.43;6.40;;;16.10;99.90;;;;;;5059174;28;20477;-66
2021/05/19 06:29:26;;;;;;;8.77;6.93;;;15.90;99.90;;;;;;5058417;28;20511;-66
2021/05/19 06:31:53;;;;;;;9.37;8.47;;;15.90;99.90;;;;;;5057785;28;20417;-65
2021/05/19 06:34:20;;;;;;;10.73;7.23;;;16.20;99.90;;;;;;5060268;28;20458;-68
2021/05/19 06:36:50;;;;;;;8.20;6.97;;;17.10;99.90;;;;;;5060849;28;20482;-67
2021/05/19 06:39:19;;;;;;;7.80;6.27;;;18.40;97.00;;;;;;5061340;28;20740;-65
2021/05/19 06:41:48;;;;;;;6.50;6.00;;;19.60;94.00;;;;;;5059372;28;20486;-68
2021/05/19 06:44:17;;;;;;;6.73;6.17;;;19.80;93.10;;;;;;5039963;28;20438;-67
2021/05/19 06:46:45;;;;;;;7.40;6.53;;;19.70;93.50;;;;;;5041467;28;20703;-68
2021/05/19 06:49:13;;;;;;;6.23;5.73;;;19.50;93.20;;;;;;5040160;28;20485;-67
2021/05/19 06:51:42;;;;;;;6.70;6.10;;;18.90;94.30;;;;;;5040347;28;20455;-67
2021/05/19 06:54:10;;;;;;;7.63;6.90;;;18.20;95.20;;;;;;5057632;28;20711;-67
2021/05/19 06:56:45;;;;;;;7.60;6.90;;;19.00;93.70;;;;;;5058941;28;20451;-68
2021/05/19 06:59:14;;;;;;;8.40;7.70;;;20.10;92.00;;;;;;5056769;28;20452;-67
2021/05/19 07:01:41;;;;;;;7.17;6.77;;;24.10;82.50;;;;;;5059386;28;20461;-67
2021/05/19 07:04:09;;;;;;;7.50;7.20;;;27.00;64.70;;;;;;5059891;28;20536;-68
2021/05/19 07:06:36;;;;;;;7.70;7.10;;;25.70;62.80;;;;;;5056595;28;20483;-68
2021/05/19 07:09:04;;;;;;;9.00;8.10;;;24.20;67.20;;;;;;5056555;28;20450;-67
2021/05/19 07:11:32;;;;;;;7.70;7.20;;;23.00;71.80;;;;;;5059546;28;20418;-68
2021/05/19 07:14:01;;;;;;;8.03;7.43;;;22.00;75.80;;;;;;5046102;28;20409;-68
2021/05/19 07:16:30;;;;;;;8.33;7.73;;;20.30;82.10;;;;;;5053717;28;20467;-68
2021/05/19 07:18:57;;;;;;;8.07;7.30;;;19.20;87.90;;;;;;5052575;28;20515;-68
2021/05/19 07:21:24;;;;;;;6.60;6.20;;;18.60;90.20;;;;;;5057025;28;20469;-67
2021/05/19 07:23:52;;;;;;;8.13;7.53;;;18.40;90.40;;;;;;5058859;28;20444;-67
2021/05/19 07:26:22;;;;;;;7.23;6.60;;;18.90;91.20;;;;;;5052880;28;20470;-67
2021/05/19 07:28:54;;;;;;;7.00;6.50;;;22.00;83.00;;;;;;5070232;28;20516;-68
2021/05/19 07:31:21;;;;;;;9.10;8.30;;;25.60;69.10;;;;;;5055756;28;21363;-67
2021/05/19 07:33:48;;;;;;;7.63;7.03;;;28.80;55.70;;;;;;5058763;28;20414;-67
2021/05/19 07:36:16;;;;;;;8.97;8.40;;;30.10;48.70;;;;;;5056975;28;20449;-67
2021/05/19 07:38:43;;;;;;;9.00;8.40;;;31.90;42.90;;;;;;5056410;28;20441;-66
2021/05/19 07:41:11;;;;;;;8.90;8.40;;;33.20;38.90;;;;;;5058307;28;20778;-68
2021/05/19 07:43:38;;;;;;;9.20;8.70;;;31.80;39.80;;;;;;5057479;28;20767;-68
2021/05/19 07:46:05;;;;;;;8.20;7.80;;;29.20;42.40;;;;;;5058822;28;20467;-68
2021/05/19 07:48:31;;;;;;;8.43;7.93;;;26.70;46.10;;;;;;5057123;28;20519;-67
2021/05/19 07:50:59;;;;;;;8.30;7.80;;;24.20;51.10;;;;;;5056752;28;20467;-68
2021/05/19 07:53:25;;;;;;;7.37;7.07;;;21.30;57.50;;;;;;5057536;28;20511;-68
2021/05/19 07:55:57;;;;;;;7.47;7.07;;;20.10;61.20;;;;;;5054950;28;20197;-68
2021/05/19 08:01:53;;;;;;;7.50;7.10;;;18.60;73.20;;;;;;5035208;28;20885;-69
2021/05/19 08:04:19;;;;;;;8.03;7.33;;;18.00;81.50;;;;;;5034361;28;20475;-69
2021/05/19 08:06:45;;;;;;;6.00;5.50;;;17.50;88.40;;;;;;5049492;28;20630;-68
2021/05/19 08:09:10;;;;;;;6.47;5.97;;;17.10;93.00;;;;;;5054074;28;20406;-68
2021/05/19 08:11:38;;;;;;;5.97;5.57;;;16.70;93.70;;;;;;5055819;28;20179;-68
2021/05/19 08:14:04;;;;;;;5.67;5.10;;;16.30;94.40;;;;;;5054748;28;20198;-67
2021/05/19 08:16:30;;;;;;;5.47;4.97;;;16.10;95.40;;;;;;5054524;28;20467;-68
2021/05/19 08:18:55;;;;;;;4.43;4.03;;;15.90;96.60;;;;;;5052987;28;20918;-67
2021/05/19 08:21:24;;;;;;;5.07;4.40;;;15.70;99.90;;;;;;5051937;28;20209;-67
2021/05/19 08:23:52;;;;;;;5.20;4.80;;;15.40;99.90;;;;;;5084884;28;20628;-68
2021/05/19 08:26:19;;;;;;;4.43;4.13;;;15.10;99.90;;;;;;5054581;28;20523;-68
2021/05/19 08:28:49;;;;;;;4.88;4.47;;;15.00;99.90;;;;;;5054581;28;20446;-67
2021/05/19 08:31:18;;;;;;;5.10;4.60;;;14.80;99.90;;;;;;5053155;28;20226;-66
2021/05/19 08:33:50;;;;;;;5.65;5.15;;;14.60;99.90;;;;;;5058864;28;20207;-68
2021/05/19 08:36:18;;;;;;;5.20;4.70;;;14.40;99.90;;;;;;5054766;28;20209;-67
2021/05/19 08:38:45;;;;;;;6.07;4.57;;;14.40;99.90;;;;;;5049213;28;20222;-69
2021/05/19 08:41:12;;;;;;;4.63;4.22;;;14.40;99.90;;;;;;5050808;28;20240;-68
2021/05/19 08:43:39;;;;;;;5.50;5.00;;;14.40;99.90;;;;;;5058318;28;20446;-67
2021/05/19 08:46:10;;;;;;;5.75;4.88;;;14.70;99.90;;;;;;5058054;28;20215;-67
2021/05/19 08:48:41;;;;;;;6.03;5.25;;;15.10;99.90;;;;;;5051534;28;20255;-67
2021/05/19 08:51:09;;;;;;;6.68;5.55;;;15.80;99.90;;;;;;5058104;28;20224;-66
2021/05/19 08:53:36;;;;;;;4.93;4.53;;;16.50;99.90;;;;;;5051935;28;20284;-66
2021/05/19 08:56:10;;;;;;;6.60;4.83;;;17.30;98.50;;;;;;5058340;28;20426;-67
2021/05/19 08:58:38;;;;;;;6.63;5.80;;;19.20;97.00;;;;;;5057665;28;20442;-67
2021/05/19 09:01:06;;;;;;;5.33;4.93;;;21.80;92.60;;;;;;5049910;28;20447;-69
2021/05/19 09:03:35;;;;;;;5.83;5.27;;;25.30;82.50;;;;;;5057254;28;20735;-66
2021/05/19 09:06:08;;;;;;;6.33;5.83;;;27.90;66.50;;;;;;5052226;28;20415;-68
2021/05/19 09:08:39;;;;;;;6.47;6.07;;;27.80;58.70;;;;;;5048112;28;20449;-67
2021/05/19 09:11:11;;;;;;;6.70;6.40;;;26.70;63.90;;;;;;5055485;28;20449;-67
2021/05/19 09:13:45;;;;;;;7.17;6.67;;;25.80;58.70;;;;;;5051802;28;20972;-68
2021/05/19 09:16:39;;;;;;;7.00;6.40;;;26.20;57.90;;;;;;5057871;28;20496;-68
2021/05/19 09:19:06;;;;;;;10.30;9.67;;;27.70;54.40;;;;;;5044778;28;20785;-68
2021/05/19 09:21:39;;;;;;;8.90;8.30;;;30.50;47.40;;;;;;5049772;28;20442;-68
2021/05/19 09:24:31;;;;;;;7.37;7.07;;;31.50;43.80;;;;;;5048447;28;20448;-68
2021/05/19 09:27:01;;;;;;;8.53;8.03;;;31.90;40.80;;;;;;5056812;28;20491;-69
2021/05/19 09:29:31;;;;;;;8.30;7.70;;;31.80;40.80;;;;;;5057039;28;20455;-67
2021/05/19 09:32:04;;;;;;;6.73;6.43;;;29.40;43.90;;;;;;5058117;28;20890;-67
2021/05/19 09:34:39;;;;;;;12.43;7.70;;;26.60;47.70;;;;;;5056734;28;20467;-68
2021/05/19 09:37:33;;;;;;;9.80;8.73;;;24.40;52.40;;;;;;5049326;28;20423;-68
2021/05/19 09:40:11;;;;;;;7.17;6.63;;;23.20;53.80;;;;;;5081617;28;20527;-68
2021/05/19 09:42:46;;;;;;;6.10;5.70;;;22.20;55.70;;;;;;5056303;28;20817;-68
2021/05/19 09:45:39;;;;;;;8.07;6.70;;;21.70;58.30;;;;;;5057150;28;20478;-69
2021/05/19 09:48:14;;;;;;;7.10;6.40;;;21.20;59.90;;;;;;5055166;28;20483;-68
2021/05/19 09:50:48;;;;;;;6.13;5.83;;;20.50;60.10;;;;;;5050204;28;20431;-69
2021/05/19 09:53:19;;;;;;;6.67;5.57;;;19.90;63.60;;;;;;5061024;28;20423;-68
2021/05/19 09:55:52;;;;;;;6.47;6.07;;;19.70;63.20;;;;;;5061085;28;20831;-68
2021/05/19 09:58:42;;;;;;;6.70;6.20;;;19.60;64.90;;;;;;5056789;28;20764;-68
2021/05/19 10:01:10;;;;;;;5.63;5.23;;;20.00;67.10;;;;;;5090040;28;20856;-68
2021/05/19 10:03:39;;;;;;;5.60;5.30;;;20.20;66.90;;;;;;5077761;28;20420;-69
2021/05/19 10:06:22;;;;;;;5.87;5.67;;;20.60;64.00;;;;;;5059714;28;20444;-69
2021/05/19 10:08:55;;;;;;;6.10;5.60;;;20.90;64.40;;;;;;5054539;28;20464;-69
2021/05/19 10:11:24;;;;;;;6.13;5.80;;;20.80;62.80;;;;;;5054146;28;20755;-69
2021/05/19 10:13:57;;;;;;;6.20;5.80;;;20.80;63.80;;;;;;5055205;28;20452;-69
2021/05/19 10:16:25;;;;;;;9.70;6.20;;;20.80;63.90;;;;;;5051953;28;20447;-69
2021/05/19 10:18:56;;;;;;;6.33;5.93;;;21.00;64.80;;;;;;5056614;28;20448;-70
2021/05/19 10:21:31;;;;;;;5.60;5.40;;;21.40;63.60;;;;;;5057531;28;20447;-69
2021/05/19 10:24:07;;;;;;;6.20;5.70;;;21.50;61.40;;;;;;5044753;28;20536;-68
2021/05/19 10:27:05;;;;;;;5.90;5.60;;;21.50;63.80;;;;;;5060438;28;20429;-68
2021/05/19 10:29:46;;;;;;;6.33;6.03;;;21.40;63.30;;;;;;5056576;28;20482;-69
2021/05/19 10:32:22;;;;;;;6.63;6.20;;;21.50;63.80;;;;;;5059354;28;20674;-68
2021/05/19 10:35:06;;;;;;;7.50;7.10;;;21.40;62.90;;;;;;5057400;28;20437;-69
2021/05/19 10:37:49;;;;;;;5.93;5.73;;;21.00;61.60;;;;;;5059850;28;20480;-67
2021/05/19 10:40:35;;;;;;;5.83;5.63;;;20.00;61.50;;;;;;5059397;28;20513;-68
2021/05/19 10:43:16;;;;;;;6.20;5.60;;;19.30;62.60;;;;;;5060854;28;20765;-68
2021/05/19 10:45:50;;;;;;;5.97;5.73;;;19.50;59.70;;;;;;5059859;28;20387;-68
2021/05/19 10:48:31;;;;;;;5.00;4.70;;;19.50;60.50;;;;;;5060507;28;20507;-70
2021/05/19 10:51:43;;;;;;;5.50;5.07;;;19.90;61.60;;;;;;5047187;28;20429;-69
2021/05/19 10:57:21;;;;;;;5.27;4.97;;;20.30;61.50;;;;;;5060339;28;20431;-69
2021/05/19 11:00:15;;;;;;;5.20;5.00;;;20.70;60.50;;;;;;5055618;28;20768;-69
2021/05/19 11:03:09;;;;;;;6.03;5.63;;;21.20;60.10;;;;;;5050816;28;20632;-69
2021/05/19 11:05:39;;;;;;;5.37;5.07;;;21.70;59.60;;;;;;5052870;28;20431;-69
2021/05/19 11:10:35;;;;;;;5.03;4.83;;;21.70;54.10;;;;;;5059225;28;20582;-69
2021/05/19 11:13:03;;;;;;;5.07;4.87;;;21.10;55.70;;;;;;5053872;28;20424;-68
2021/05/19 11:15:47;;;;;;;4.67;4.47;;;20.80;57.80;;;;;;5046953;28;20529;-68
2021/05/19 11:21:01;;;;;;;5.20;4.90;;;20.50;58.70;;;;;;5056296;28;20415;-70
2021/05/19 11:23:30;;;;;;;5.50;5.00;;;19.30;59.90;;;;;;5050364;28;20452;-69
2021/05/19 11:26:15;;;;;;;5.20;5.00;;;18.70;63.30;;;;;;5059369;28;20503;-69
2021/05/19 11:28:44;;;;;;;4.67;4.47;;;18.50;64.20;;;;;;5043739;28;20669;-68
2021/05/19 11:31:16;;;;;;;4.13;4.00;;;18.20;66.20;;;;;;5056081;28;20626;-68
2021/05/19 11:33:59;;;;;;;4.70;4.50;;;18.20;66.90;;;;;;5048726;28;20509;-69
2021/05/19 11:36:42;;;;;;;4.80;4.60;;;18.30;65.00;;;;;;5055778;28;20562;-70
2021/05/19 11:39:31;;;;;;;5.70;5.20;;;18.30;65.10;;;;;;5046937;28;20489;-69
2021/05/19 11:42:29;;;;;;;4.17;4.00;;;18.20;64.00;;;;;;5058818;28;20428;-70
2021/05/19 11:45:05;;;;;;;5.23;4.83;;;18.30;62.20;;;;;;5059961;28;20747;-68
2021/05/19 11:47:32;;;;;;;4.87;4.57;;;18.80;60.80;;;;;;5052269;28;20486;-70
2021/05/19 11:50:23;;;;;;;5.17;4.87;;;19.20;61.60;;;;;;5037801;28;20411;-69
2021/05/19 11:52:58;;;;;;;4.97;4.67;;;19.30;61.60;;;;;;5039066;28;20927;-69
2021/05/19 11:55:28;;;;;;;4.60;4.33;;;19.20;60.80;;;;;;5038720;28;20473;-71
2021/05/19 11:58:06;;;;;;;4.50;4.30;;;18.70;66.10;;;;;;5052307;28;20430;-67
2021/05/19 12:01:01;;;;;;;4.00;3.67;;;17.80;73.40;;;;;;5051593;28;20437;-70
2021/05/19 12:03:31;;;;;;;4.37;4.17;;;17.10;81.40;;;;;;5081794;28;20434;-69
2021/05/19 12:06:09;;;;;;;6.13;3.87;;;16.60;83.50;;;;;;5058114;28;20506;-70
2021/05/19 12:08:40;;;;;;;3.30;3.20;;;16.20;86.60;;;;;;5054474;28;20469;-69
2021/05/19 12:11:14;;;;;;;3.70;3.50;;;15.90;90.00;;;;;;5056936;28;20440;-69
2021/05/19 12:13:46;;;;;;;3.63;3.37;;;15.90;91.30;;;;;;5064127;28;20751;-68
2021/05/19 12:16:19;;;;;;;3.30;3.10;;;16.30;90.70;;;;;;5059904;28;20577;-69
2021/05/19 12:18:59;;;;;;;4.10;3.83;;;17.10;87.50;;;;;;5059577;28;20448;-69
2021/05/19 12:21:28;;;;;;;5.70;3.93;;;17.50;81.90;;;;;;5056296;28;20462;-70
2021/05/19 12:23:59;;;;;;;4.10;3.90;;;17.50;80.20;;;;;;5058453;28;20607;-69
2021/05/19 12:26:28;;;;;;;3.37;3.27;;;17.60;78.50;;;;;;5057025;28;20415;-69
2021/05/19 12:28:56;;;;;;;3.70;3.50;;;17.50;79.30;;;;;;5057756;28;20503;-68
2021/05/19 12:31:35;;;;;;;3.80;3.60;;;17.50;81.20;;;;;;5055438;28;20450;-69
2021/05/19 12:34:15;;;;;;;3.90;3.60;;;17.00;84.70;;;;;;5058100;28;20404;-68
2021/05/19 12:36:42;;;;;;;3.63;3.43;;;16.40;89.20;;;;;;5056365;28;20441;-68
2021/05/19 12:39:09;;;;;;;3.57;3.33;;;15.90;89.10;;;;;;5057621;28;20811;-70
2021/05/19 12:41:45;;;;;;;3.47;3.27;;;15.90;90.70;;;;;;5058401;28;20498;-70
2021/05/19 12:44:15;;;;;;;3.57;3.37;;;16.10;91.60;;;;;;5053522;28;20427;-70
2021/05/19 12:47:01;;;;;;;3.33;3.13;;;16.10;92.50;;;;;;5055664;28;20497;-67
2021/05/19 12:49:30;;;;;;;3.35;2.65;;;16.10;92.60;;;;;;5056178;28;20414;-68
2021/05/19 12:52:06;;;;;;;3.13;2.92;;;16.00;93.30;;;;;;5057381;28;20205;-69
2021/05/19 12:54:34;;;;;;;2.90;2.70;;;16.30;91.80;;;;;;5055435;28;20210;-70
2021/05/19 12:57:06;;;;;;;4.00;3.10;;;16.50;92.00;;;;;;5059986;28;20537;-70
2021/05/19 12:59:59;;;;;;;3.57;3.37;;;16.90;90.90;;;;;;5051041;28;20661;-69
2021/05/19 13:02:30;;;;;;;3.63;3.43;;;17.40;90.10;;;;;;5049162;28;20537;-70
2021/05/19 13:04:58;;;;;;;3.37;3.27;;;17.70;85.70;;;;;;5055265;28;20425;-68
2021/05/19 13:07:27;;;;;;;4.33;4.03;;;17.90;84.40;;;;;;5053309;28;20504;-69
2021/05/19 13:10:18;;;;;;;5.40;4.00;;;18.10;84.90;;;;;;5049465;28;20457;-69
2021/05/19 13:13:11;;;;;;;4.60;4.40;;;17.40;81.10;;;;;;5049863;28;20419;-68
2021/05/19 13:15:47;;;;;;;3.67;3.47;;;16.80;82.80;;;;;;5052748;28;20422;-71